Hancock, Michigan
Current Conditions -  °F | °C
As of 8:53 AM on Friday 26 Dec 2014 (Local Time) from KCMX Reporting Station
Light Snow Light Snow  
Wind Chill: 30°   Ceiling: 2700
Heat Index: 30°   Visibility: 3mi
Dew Point: 28°   Wind: 3mph
Humidity: 92%   Direction: 310°NW
Pressure: 29.95"   Gusts: NA
Location:  47.13°N, 88.58°W
Report Text: KCMX 261353Z AUTO 31003KT 3SM -SN BR BKN027 OVC032 M01/M02 A2995 RMK AO2 SNE1257B49 SLP156 P0000 T10111022
Loading
Personal Weather Stations






























Interactive Weather Map New forecast layout! Learn more

10-Day Weather Forecast

Advertisements
Track Severe Weather on mobile